Time;durP1;ratioP1;P1;durP2;ratioP2;P2;SDS_P1;SDS_P2;PMS_P1;PMS_P2;Temp;Humidity;BMP_temperature;BMP_pressure;BME280_temperature;BME280_humidity;BME280_pressure;Samples;Min_cycle;Max_cycle;Signal;HPM_P1;HPM_P2
2020/12/05 00:00:55;;;;;;;59.10;33.80;;;;;;;3.53;100.00;99681.38;6236808;22;20051;-89
2020/12/05 00:03:22;;;;;;;55.47;33.53;;;;;;;3.57;100.00;99675.94;6267993;22;20102;-88
2020/12/05 00:05:49;;;;;;;63.47;33.25;;;;;;;3.54;100.00;99667.25;6245826;22;20069;-88
2020/12/05 00:08:16;;;;;;;57.38;33.03;;;;;;;3.58;100.00;99668.84;6271723;22;20016;-89
2020/12/05 00:10:44;;;;;;;57.53;32.67;;;;;;;3.57;100.00;99668.00;6271755;22;20012;-89
2020/12/05 00:13:12;;;;;;;59.67;34.05;;;;;;;3.58;100.00;99659.13;6241731;22;20022;-86
2020/12/05 00:15:39;;;;;;;58.22;33.67;;;;;;;3.64;100.00;99663.28;6264334;22;20011;-87
2020/12/05 00:18:06;;;;;;;56.40;33.67;;;;;;;3.72;100.00;99666.50;6244212;22;20028;-88
2020/12/05 00:20:33;;;;;;;60.65;33.80;;;;;;;3.69;100.00;99655.19;6271625;22;20381;-88
2020/12/05 00:23:00;;;;;;;58.13;31.30;;;;;;;3.69;100.00;99634.00;6271350;22;20015;-87
2020/12/05 00:25:27;;;;;;;58.20;32.70;;;;;;;3.76;100.00;99627.53;6272531;22;20073;-87
2020/12/05 00:27:55;;;;;;;54.22;31.45;;;;;;;3.73;100.00;99625.88;6238910;22;20026;-89
2020/12/05 00:30:28;;;;;;;56.13;32.30;;;;;;;3.78;100.00;99617.72;6265223;22;20012;-90
2020/12/05 00:32:58;;;;;;;52.43;30.50;;;;;;;3.79;100.00;99615.03;6271866;22;20095;-90
2020/12/05 00:35:26;;;;;;;57.88;31.75;;;;;;;3.85;100.00;99605.94;6272069;22;20007;-90
2020/12/05 00:37:53;;;;;;;52.40;30.85;;;;;;;3.88;100.00;99605.81;6219905;22;20019;-91
2020/12/05 00:40:21;;;;;;;53.05;31.02;;;;;;;3.91;100.00;99602.19;6273136;22;20070;-88
2020/12/05 00:42:48;;;;;;;53.22;30.88;;;;;;;4.01;100.00;99592.94;6265164;22;20015;-89
2020/12/05 00:45:16;;;;;;;51.05;29.20;;;;;;;4.05;100.00;99584.78;6240823;22;20024;-88
2020/12/05 00:47:43;;;;;;;50.00;29.45;;;;;;;4.06;100.00;99569.75;6270422;22;20062;-89
2020/12/05 00:50:13;;;;;;;48.22;28.67;;;;;;;4.08;100.00;99583.81;6245266;22;20086;-90
2020/12/05 00:52:40;;;;;;;47.20;29.17;;;;;;;4.10;100.00;99584.59;6244532;22;20028;-88
2020/12/05 00:55:08;;;;;;;48.72;30.58;;;;;;;4.13;100.00;99579.16;6216844;22;20272;-88
2020/12/05 00:57:37;;;;;;;51.08;30.40;;;;;;;4.15;100.00;99595.88;6263788;22;20724;-90
2020/12/05 01:00:06;;;;;;;48.10;27.83;;;;;;;4.22;100.00;99612.31;6271558;22;20020;-89
2020/12/05 01:02:34;;;;;;;48.17;29.63;;;;;;;4.22;100.00;99610.56;6244921;22;20022;-87
2020/12/05 01:05:02;;;;;;;52.42;29.75;;;;;;;4.26;100.00;99613.94;6243602;22;20023;-87
2020/12/05 01:07:29;;;;;;;49.05;28.00;;;;;;;4.29;100.00;99625.28;6244261;22;20023;-88
2020/12/05 01:09:56;;;;;;;48.65;29.60;;;;;;;4.25;100.00;99628.09;6239044;22;20011;-87
2020/12/05 01:12:24;;;;;;;45.47;28.27;;;;;;;4.28;100.00;99628.81;6238865;22;20106;-88
2020/12/05 01:14:51;;;;;;;49.93;29.20;;;;;;;4.31;100.00;99643.75;6244227;22;20111;-88
2020/12/05 01:17:24;;;;;;;51.38;29.80;;;;;;;4.24;100.00;99629.88;6244729;22;20020;-88
2020/12/05 01:19:55;;;;;;;47.83;28.05;;;;;;;4.32;100.00;99625.13;6271210;22;20039;-88
2020/12/05 01:22:23;;;;;;;49.63;29.80;;;;;;;4.28;100.00;99627.97;6244448;22;20077;-87
2020/12/05 01:24:51;;;;;;;51.50;30.80;;;;;;;4.27;100.00;99629.75;6237504;22;20319;-88
2020/12/05 01:27:18;;;;;;;48.83;29.15;;;;;;;4.25;100.00;99613.06;6240690;22;20370;-87
2020/12/05 01:29:45;;;;;;;46.42;29.40;;;;;;;4.22;100.00;99617.63;6244090;22;20077;-87
2020/12/05 01:32:13;;;;;;;51.17;30.58;;;;;;;4.26;100.00;99613.94;6271561;22;20289;-87
2020/12/05 01:34:40;;;;;;;52.60;28.52;;;;;;;4.21;100.00;99614.13;6270202;22;20401;-87
2020/12/05 01:37:09;;;;;;;45.97;27.38;;;;;;;4.18;100.00;99618.69;6241528;22;20095;-87
2020/12/05 01:39:37;;;;;;;51.72;29.42;;;;;;;4.17;100.00;99635.53;6235045;22;20023;-87
2020/12/05 01:42:04;;;;;;;50.13;29.88;;;;;;;4.15;100.00;99653.25;6271158;22;20022;-86
2020/12/05 01:44:31;;;;;;;51.47;29.75;;;;;;;4.15;100.00;99661.19;6269498;22;20039;-89
2020/12/05 01:47:00;;;;;;;52.58;29.90;;;;;;;4.15;100.00;99656.78;6240842;22;20564;-90
2020/12/05 01:49:27;;;;;;;50.75;30.20;;;;;;;4.13;100.00;99677.19;6240386;22;20019;-86
2020/12/05 01:52:04;;;;;;;45.17;28.38;;;;;;;4.15;100.00;99707.13;6262391;22;20071;-87
2020/12/05 01:54:32;;;;;;;53.80;30.98;;;;;;;4.10;100.00;99695.84;6262131;22;20026;-87
2020/12/05 01:57:02;;;;;;;53.63;30.70;;;;;;;4.10;100.00;99675.50;6268815;22;20012;-86
2020/12/05 01:59:30;;;;;;;45.05;27.65;;;;;;;4.17;100.00;99675.25;6270104;22;20019;-87
2020/12/05 02:02:02;;;;;;;46.58;28.83;;;;;;;4.08;100.00;99658.84;6270043;22;20030;-86
2020/12/05 02:04:30;;;;;;;50.10;28.73;;;;;;;4.11;100.00;99644.56;6271279;22;20047;-87
2020/12/05 02:07:29;;;;;;;45.42;26.58;;;;;;;4.15;100.00;99662.09;6265567;22;20135;-87
2020/12/05 02:09:58;;;;;;;48.28;27.95;;;;;;;4.14;100.00;99668.28;6226199;22;20102;-87
2020/12/05 02:12:32;;;;;;;50.95;30.50;;;;;;;4.07;100.00;99666.81;6245019;22;20023;-86
2020/12/05 02:15:07;;;;;;;47.08;27.80;;;;;;;4.20;100.00;99661.88;6271087;22;20015;-86
2020/12/05 02:17:39;;;;;;;46.05;27.50;;;;;;;4.14;100.00;99647.09;6272283;22;20050;-87
2020/12/05 02:20:08;;;;;;;44.58;28.10;;;;;;;4.18;100.00;99654.00;6239400;22;20633;-87
2020/12/05 02:22:41;;;;;;;47.00;28.73;;;;;;;4.21;100.00;99645.91;6267451;22;20016;-87
2020/12/05 02:25:11;;;;;;;46.97;29.08;;;;;;;4.19;100.00;99650.44;6272060;22;20044;-87
2020/12/05 02:27:42;;;;;;;48.63;29.17;;;;;;;4.12;100.00;99646.31;6245618;22;20023;-87
2020/12/05 02:30:11;;;;;;;49.30;28.85;;;;;;;4.16;100.00;99649.72;6245579;22;20167;-88
2020/12/05 02:32:38;;;;;;;47.63;29.17;;;;;;;4.16;100.00;99655.88;6245112;22;20019;-87
2020/12/05 02:35:05;;;;;;;48.97;29.85;;;;;;;4.20;100.00;99662.75;6238435;22;20024;-87
2020/12/05 02:37:35;;;;;;;48.45;27.83;;;;;;;4.22;100.00;99671.50;6268826;22;20018;-89
2020/12/05 02:40:03;;;;;;;50.22;29.85;;;;;;;4.20;100.00;99670.69;6245614;22;20415;-87
2020/12/05 02:42:35;;;;;;;46.60;28.33;;;;;;;4.23;100.00;99665.28;6272897;22;20019;-87
2020/12/05 02:45:08;;;;;;;45.40;28.05;;;;;;;4.15;100.00;99658.56;6272364;22;20012;-87
2020/12/05 02:47:35;;;;;;;47.47;29.33;;;;;;;4.11;100.00;99647.22;6240596;22;20047;-86
2020/12/05 02:50:04;;;;;;;49.13;29.45;;;;;;;4.10;100.00;99640.22;6266186;22;20134;-87
2020/12/05 02:52:31;;;;;;;53.92;30.05;;;;;;;4.05;100.00;99652.81;6272222;22;20015;-87
2020/12/05 02:54:58;;;;;;;51.10;28.60;;;;;;;4.10;100.00;99650.81;6245626;22;20110;-87
2020/12/05 02:57:25;;;;;;;50.67;29.33;;;;;;;4.08;100.00;99648.25;6273006;22;20738;-86
2020/12/05 02:59:53;;;;;;;51.25;29.38;;;;;;;4.16;100.00;99658.50;6245370;22;20066;-88
2020/12/05 03:02:20;;;;;;;46.42;28.70;;;;;;;4.14;100.00;99657.69;6265601;22;20346;-88
2020/12/05 03:04:47;;;;;;;46.63;28.67;;;;;;;4.19;100.00;99658.38;6238921;22;20447;-88
2020/12/05 03:07:15;;;;;;;49.03;29.48;;;;;;;4.23;100.00;99657.31;6245490;22;20039;-88
2020/12/05 03:09:42;;;;;;;44.45;27.20;;;;;;;4.21;100.00;99648.56;6245618;22;20027;-88
2020/12/05 03:12:09;;;;;;;50.72;31.95;;;;;;;4.07;100.00;99643.00;6272510;22;20023;-87
2020/12/05 03:14:36;;;;;;;46.30;29.48;;;;;;;4.12;100.00;99643.69;6273099;22;20016;-90
2020/12/05 03:17:04;;;;;;;49.75;30.15;;;;;;;4.14;100.00;99638.28;6265670;22;20455;-88
2020/12/05 03:19:32;;;;;;;49.10;29.60;;;;;;;4.18;100.00;99648.69;6242053;22;20020;-87
2020/12/05 03:21:59;;;;;;;49.45;28.75;;;;;;;4.16;100.00;99655.00;6271781;22;20106;-87
2020/12/05 03:24:26;;;;;;;48.05;29.05;;;;;;;4.19;100.00;99654.88;6245319;22;20024;-88
2020/12/05 03:26:54;;;;;;;50.67;28.80;;;;;;;4.19;100.00;99650.44;6245614;22;20023;-90
2020/12/05 03:29:21;;;;;;;46.83;27.75;;;;;;;4.17;100.00;99641.69;6243613;22;20027;-87
2020/12/05 03:31:51;;;;;;;49.25;28.05;;;;;;;4.20;100.00;99641.56;6240728;22;20023;-88
2020/12/05 03:34:19;;;;;;;48.38;29.42;;;;;;;4.13;100.00;99632.16;6246092;22;20448;-87
2020/12/05 03:36:46;;;;;;;46.05;28.48;;;;;;;4.18;100.00;99618.69;6273826;22;20095;-87
2020/12/05 03:39:13;;;;;;;48.17;29.10;;;;;;;4.15;100.00;99613.53;6247038;22;20065;-87
2020/12/05 03:41:40;;;;;;;52.35;30.17;;;;;;;4.08;100.00;99612.94;6274182;22;20018;-86
2020/12/05 03:44:07;;;;;;;50.38;30.10;;;;;;;4.09;100.00;99617.31;6268917;22;20020;-89
2020/12/05 03:46:35;;;;;;;50.70;30.45;;;;;;;4.14;100.00;99630.34;6241609;22;20019;-87
2020/12/05 03:49:02;;;;;;;46.70;29.65;;;;;;;4.13;100.00;99629.50;6273161;22;20065;-88
2020/12/05 03:51:29;;;;;;;48.10;29.77;;;;;;;4.18;100.00;99616.91;6274278;22;20466;-86
2020/12/05 03:53:56;;;;;;;48.67;28.55;;;;;;;4.12;100.00;99617.19;6272580;22;20050;-88
2020/12/05 03:56:24;;;;;;;47.83;27.60;;;;;;;4.16;100.00;99612.63;6247839;22;20095;-89
2020/12/05 03:58:53;;;;;;;49.00;28.65;;;;;;;4.06;100.00;99610.34;6241484;22;20061;-88
2020/12/05 04:01:22;;;;;;;44.45;28.70;;;;;;;4.11;100.00;99610.13;6270079;22;20016;-88
2020/12/05 04:03:49;;;;;;;45.03;28.10;;;;;;;4.22;100.00;99597.31;6273792;22;20043;-89
2020/12/05 04:06:17;;;;;;;50.17;29.25;;;;;;;4.10;100.00;99598.69;6248147;22;20095;-89
2020/12/05 04:08:45;;;;;;;44.60;28.67;;;;;;;4.09;100.00;99599.63;6273655;22;20024;-87
2020/12/05 04:11:12;;;;;;;48.78;28.80;;;;;;;4.11;100.00;99596.91;6271629;22;20451;-89
2020/12/05 04:13:40;;;;;;;46.72;28.38;;;;;;;4.11;100.00;99604.84;6266383;22;20066;-90
2020/12/05 04:16:07;;;;;;;49.28;27.70;;;;;;;4.14;100.00;99614.44;6273826;22;20038;-89
2020/12/05 04:18:34;;;;;;;51.08;28.92;;;;;;;4.18;100.00;99622.19;6246886;22;20024;-88
2020/12/05 04:21:01;;;;;;;52.65;28.65;;;;;;;4.19;100.00;99649.59;6274293;22;20087;-89
2020/12/05 04:23:28;;;;;;;48.55;27.83;;;;;;;4.17;100.00;99651.41;6273459;22;20023;-88
2020/12/05 04:25:57;;;;;;;49.65;28.58;;;;;;;4.22;100.00;99644.13;6269362;22;20023;-88
2020/12/05 04:28:25;;;;;;;53.15;28.77;;;;;;;4.20;100.00;99638.03;6241419;22;20032;-89
2020/12/05 04:30:52;;;;;;;48.30;29.30;;;;;;;4.21;100.00;99629.16;6246244;22;20026;-89
2020/12/05 04:33:19;;;;;;;47.80;29.15;;;;;;;4.19;100.00;99637.19;6246951;22;20015;-88
2020/12/05 04:35:46;;;;;;;51.67;28.50;;;;;;;4.18;100.00;99627.50;6273173;22;20020;-90
2020/12/05 04:38:13;;;;;;;43.90;27.50;;;;;;;4.15;100.00;99613.53;6245910;22;20024;-88
2020/12/05 04:40:40;;;;;;;48.42;28.70;;;;;;;4.15;100.00;99624.13;6268299;22;20027;-86
2020/12/05 04:43:08;;;;;;;43.28;27.30;;;;;;;4.12;100.00;99633.06;6269054;22;20016;-88
2020/12/05 04:45:35;;;;;;;47.05;28.30;;;;;;;4.09;100.00;99641.16;6273347;22;20362;-88
2020/12/05 04:48:04;;;;;;;48.97;28.25;;;;;;;4.13;100.00;99645.38;6221066;22;20522;-88
2020/12/05 04:50:34;;;;;;;51.67;29.75;;;;;;;4.12;100.00;99646.31;6246021;22;20034;-86
2020/12/05 04:53:11;;;;;;;52.30;30.45;;;;;;;4.12;100.00;99651.63;6272065;22;20624;-87
2020/12/05 04:55:42;;;;;;;49.30;29.95;;;;;;;4.18;100.00;99653.13;6239972;22;20047;-87
2020/12/05 04:58:19;;;;;;;54.75;29.73;;;;;;;4.14;100.00;99652.41;6273250;22;20082;-88
2020/12/05 05:00:47;;;;;;;44.78;28.10;;;;;;;4.16;100.00;99653.22;6271973;22;20027;-87
2020/12/05 05:03:16;;;;;;;45.25;27.58;;;;;;;4.16;100.00;99645.25;6272777;22;20070;-87
2020/12/05 05:05:43;;;;;;;46.50;29.27;;;;;;;4.17;100.00;99644.31;6246005;22;20137;-89
2020/12/05 05:08:12;;;;;;;45.03;27.05;;;;;;;4.22;100.00;99652.06;6240674;22;20028;-89
2020/12/05 05:10:39;;;;;;;47.95;27.75;;;;;;;4.17;100.00;99640.81;6240663;22;20031;-87
2020/12/05 05:13:13;;;;;;;52.65;28.00;;;;;;;4.19;100.00;99641.63;6274154;22;20020;-87
2020/12/05 05:15:42;;;;;;;48.83;29.90;;;;;;;4.18;100.00;99648.69;6273528;22;20432;-86
2020/12/05 05:18:11;;;;;;;54.38;29.58;;;;;;;4.22;100.00;99649.41;6245714;22;20024;-88
2020/12/05 05:20:41;;;;;;;52.92;30.67;;;;;;;4.22;100.00;99649.41;6272150;22;20099;-87
2020/12/05 05:23:10;;;;;;;51.00;30.87;;;;;;;4.22;100.00;99650.31;6265024;22;20055;-86
2020/12/05 05:25:55;;;;;;;53.28;30.40;;;;;;;4.26;100.00;99629.84;6241325;22;20256;-90
2020/12/05 05:28:27;;;;;;;54.53;30.63;;;;;;;4.33;100.00;99628.66;6273250;22;20098;-88
2020/12/05 05:31:16;;;;;;;49.58;28.63;;;;;;;4.33;100.00;99628.66;6273149;22;20026;-87
2020/12/05 05:33:45;;;;;;;53.05;31.08;;;;;;;4.39;100.00;99628.34;6270331;22;20370;-86
2020/12/05 05:36:22;;;;;;;47.38;28.88;;;;;;;4.38;100.00;99631.94;6267720;22;20366;-87
2020/12/05 05:39:00;;;;;;;54.35;30.27;;;;;;;4.38;100.00;99641.69;6268101;22;20020;-89
2020/12/05 05:41:27;;;;;;;55.90;31.05;;;;;;;4.42;100.00;99635.31;6246594;22;20019;-86
2020/12/05 05:43:57;;;;;;;52.70;30.30;;;;;;;4.48;100.00;99643.00;6272653;22;20462;-90
2020/12/05 05:46:27;;;;;;;51.80;29.65;;;;;;;4.47;100.00;99668.66;6247088;22;20020;-89
2020/12/05 05:48:55;;;;;;;47.15;29.08;;;;;;;4.50;100.00;99671.16;6245336;22;20022;-89
2020/12/05 05:51:42;;;;;;;50.13;29.85;;;;;;;4.49;100.00;99674.75;6263424;22;20034;-89
2020/12/05 05:54:14;;;;;;;50.75;29.75;;;;;;;4.52;100.00;99674.63;6244549;22;20026;-88
2020/12/05 05:57:10;;;;;;;48.85;28.85;;;;;;;4.50;100.00;99665.00;6272184;22;20035;-88
2020/12/05 05:59:38;;;;;;;51.22;29.10;;;;;;;4.52;100.00;99657.84;6272620;22;20023;-87
2020/12/05 06:02:08;;;;;;;49.88;29.52;;;;;;;4.58;100.00;99641.69;6272991;22;20065;-87
2020/12/05 06:04:37;;;;;;;50.63;28.27;;;;;;;4.45;100.00;99635.19;6266930;22;20091;-86
2020/12/05 06:07:07;;;;;;;53.45;29.50;;;;;;;4.49;100.00;99631.47;6240064;22;20073;-87
2020/12/05 06:09:48;;;;;;;46.15;28.58;;;;;;;4.48;100.00;99630.63;6272366;22;20020;-89
2020/12/05 06:12:19;;;;;;;42.85;26.88;;;;;;;4.49;100.00;99620.88;6244594;22;20043;-89
2020/12/05 06:14:47;;;;;;;47.45;29.08;;;;;;;4.49;100.00;99615.56;6273107;22;20016;-88
2020/12/05 06:17:17;;;;;;;48.80;29.65;;;;;;;4.52;100.00;99618.09;6244724;22;20024;-87
2020/12/05 06:19:47;;;;;;;46.63;28.75;;;;;;;4.52;100.00;99626.91;6265210;22;20090;-88
2020/12/05 07:10:02;;;;;;;46.33;27.33;;;;;;;4.61;100.00;99532.81;6110232;22;20053;-89
2020/12/05 07:12:35;;;;;;;46.03;27.17;;;;;;;4.64;100.00;99550.41;6198057;23;20026;-88
2020/12/05 07:15:19;;;;;;;49.22;28.10;;;;;;;4.60;100.00;99539.06;6115217;22;20050;-89
2020/12/05 07:17:47;;;;;;;49.58;29.05;;;;;;;4.60;100.00;99530.25;6115104;23;20093;-88
2020/12/05 07:20:14;;;;;;;47.00;27.27;;;;;;;4.53;100.00;99527.88;6221531;23;20067;-87
2020/12/05 07:22:43;;;;;;;47.42;27.52;;;;;;;4.58;100.00;99535.66;6221284;22;20018;-87
2020/12/05 07:25:11;;;;;;;44.78;27.77;;;;;;;4.52;100.00;99557.13;6119631;23;20076;-89
2020/12/05 07:27:39;;;;;;;46.90;28.40;;;;;;;4.53;100.00;99572.94;6218283;23;20060;-88
2020/12/05 07:30:06;;;;;;;48.13;28.30;;;;;;;4.50;100.00;99582.81;6116375;23;20018;-90
2020/12/05 07:32:34;;;;;;;46.55;28.23;;;;;;;4.49;100.00;99587.28;6221589;23;20052;-90
2020/12/05 07:35:04;;;;;;;45.38;27.80;;;;;;;4.46;100.00;99623.66;6221800;23;20021;-91
2020/12/05 07:37:33;;;;;;;47.00;29.27;;;;;;;4.44;100.00;99630.84;6118237;23;20109;-91
2020/12/05 07:40:02;;;;;;;47.42;27.55;;;;;;;4.44;100.00;99629.03;6119651;23;20018;-90
2020/12/05 07:42:33;;;;;;;49.92;28.13;;;;;;;4.44;100.00;99617.59;6221002;23;20026;-95
2020/12/05 07:45:05;;;;;;;48.55;28.60;;;;;;;4.42;100.00;99606.16;6116155;23;20449;-92
2020/12/05 07:47:33;;;;;;;46.47;27.10;;;;;;;4.41;100.00;99609.75;6224329;23;20080;-91
2020/12/05 07:50:01;;;;;;;55.15;27.65;;;;;;;4.41;100.00;99634.47;6118815;23;20190;-93
2020/12/05 07:53:09;;;;;;;46.53;28.13;;;;;;;4.46;100.00;99650.16;6227791;23;20132;-93
2020/12/05 11:55:12;;;;;;;36.13;20.48;;;;;;;5.93;100.00;99630.91;6123440;23;20080;-78
2020/12/05 12:12:04;;;;;;;33.20;20.33;;;;;;;6.20;100.00;99692.47;6252761;23;20016;-77
2020/12/05 12:45:47;;;;;;;26.23;17.00;;;;;;;6.89;100.00;99650.78;6193885;23;20080;-89
2020/12/05 12:50:59;;;;;;;31.80;17.20;;;;;;;6.56;100.00;99618.84;6214994;23;20020;-89
2020/12/05 12:53:27;;;;;;;26.02;15.65;;;;;;;6.59;100.00;99605.38;6216310;23;20016;-88
2020/12/05 12:55:54;;;;;;;28.42;17.40;;;;;;;6.53;100.00;99587.97;6221301;23;20024;-91
2020/12/05 12:58:28;;;;;;;26.38;15.93;;;;;;;6.53;100.00;99569.34;6194247;23;20341;-88
2020/12/05 13:00:56;;;;;;;22.75;15.65;;;;;;;6.51;100.00;99563.25;6219675;23;20487;-88
2020/12/05 13:03:24;;;;;;;28.98;16.65;;;;;;;6.42;100.00;99575.22;6190930;23;20796;-86
2020/12/05 13:05:51;;;;;;;24.50;15.75;;;;;;;6.59;100.00;99571.66;6161722;23;20038;-87
2020/12/05 13:08:18;;;;;;;21.90;15.48;;;;;;;6.58;100.00;99585.03;6193659;23;20047;-88
2020/12/05 13:10:45;;;;;;;30.65;17.02;;;;;;;6.57;100.00;99618.78;6192782;23;20084;-88
2020/12/05 13:13:12;;;;;;;28.40;16.40;;;;;;;6.85;100.00;99662.50;6220624;23;20021;-88
2020/12/05 13:15:39;;;;;;;26.85;15.55;;;;;;;6.53;100.00;99688.13;6219914;23;20087;-88
2020/12/05 13:18:07;;;;;;;25.80;16.35;;;;;;;6.43;100.00;99709.03;6214384;23;20020;-86
2020/12/05 13:20:34;;;;;;;26.48;16.27;;;;;;;6.58;100.00;99729.53;6213743;23;20024;-87
2020/12/05 13:23:01;;;;;;;26.08;16.23;;;;;;;6.54;100.00;99733.28;6219934;23;20020;-87
2020/12/05 13:25:28;;;;;;;24.42;15.70;;;;;;;6.68;100.00;99730.78;6189539;23;20048;-89
2020/12/05 13:27:58;;;;;;;22.90;15.13;;;;;;;6.77;100.00;99717.94;6218337;23;20017;-88
2020/12/05 13:30:25;;;;;;;28.73;16.90;;;;;;;6.66;100.00;99700.72;6219728;23;20087;-89
2020/12/05 13:32:52;;;;;;;24.02;15.50;;;;;;;6.66;100.00;99698.06;6188480;23;20523;-89
2020/12/05 13:35:21;;;;;;;27.55;16.38;;;;;;;6.67;100.00;99717.53;6213594;23;20032;-88
2020/12/05 13:37:49;;;;;;;26.40;15.80;;;;;;;6.61;100.00;99718.72;6185936;23;20027;-90
2020/12/05 13:40:16;;;;;;;30.17;17.00;;;;;;;6.70;100.00;99710.25;6193782;23;20017;-90
2020/12/05 13:42:44;;;;;;;29.50;17.10;;;;;;;6.80;100.00;99707.13;6218780;23;20044;-88
2020/12/05 13:45:11;;;;;;;24.08;16.55;;;;;;;6.85;100.00;99691.78;6218471;23;20043;-90
2020/12/05 13:47:38;;;;;;;24.85;15.65;;;;;;;6.87;100.00;99671.28;6188306;23;20047;-91
2020/12/05 13:50:05;;;;;;;26.42;16.42;;;;;;;6.78;100.00;99683.28;6193003;23;20020;-93
2020/12/05 13:52:33;;;;;;;24.40;15.75;;;;;;;6.68;100.00;99698.00;6195634;23;20024;-92
2020/12/05 13:55:00;;;;;;;24.20;15.52;;;;;;;6.76;100.00;99702.91;6191732;23;20087;-88
2020/12/05 13:57:28;;;;;;;30.35;16.67;;;;;;;6.66;100.00;99708.72;6190340;23;20456;-88
2020/12/05 14:00:05;;;;;;;27.10;15.02;;;;;;;6.64;100.00;99723.91;6190884;23;20051;-89
2020/12/05 14:02:38;;;;;;;30.00;17.23;;;;;;;6.46;100.00;99740.78;6214470;23;20024;-89
2020/12/05 14:05:05;;;;;;;31.45;16.85;;;;;;;6.41;100.00;99753.44;6194111;23;20524;-95
2020/12/05 14:07:40;;;;;;;27.77;16.77;;;;;;;6.39;100.00;99739.38;6195401;23;20025;-92
2020/12/05 14:10:17;;;;;;;27.90;16.80;;;;;;;6.42;100.00;99757.81;6225702;23;20017;-93
2020/12/05 14:12:44;;;;;;;29.33;16.65;;;;;;;6.52;100.00;99751.09;6199461;23;20020;-93
2020/12/05 14:15:12;;;;;;;27.35;15.98;;;;;;;6.58;100.00;99734.84;6197635;23;20040;-96
2020/12/05 14:17:45;;;;;;;26.70;15.90;;;;;;;6.49;100.00;99724.66;6205390;23;20035;-96
2020/12/05 14:20:36;;;;;;;32.08;17.00;;;;;;;6.57;100.00;99754.41;6188246;23;20021;-91
2020/12/05 14:23:05;;;;;;;33.03;17.95;;;;;;;6.36;100.00;99776.75;6195195;23;20451;-93
2020/12/05 14:25:34;;;;;;;;;;;;;;;6.41;100.00;99775.56;6211256;23;20031;-96
2020/12/05 14:28:09;;;;;;;31.30;18.85;;;;;;;6.29;100.00;99785.97;6212967;23;19911;-95
2020/12/05 14:34:02;;;;;;;29.63;17.48;;;;;;;6.40;100.00;99768.53;6216884;23;19916;-87
2020/12/05 14:39:18;;;;;;;35.38;17.92;;;;;;;6.24;100.00;99813.66;6204076;23;20013;-90
2020/12/05 14:41:48;;;;;;;30.27;18.38;;;;;;;6.42;100.00;99808.34;6194908;23;20023;-95
2020/12/05 14:44:17;;;;;;;30.38;17.88;;;;;;;6.23;100.00;99809.25;6189286;23;20083;-94
2020/12/05 14:46:55;;;;;;;30.40;18.65;;;;;;;6.25;100.00;99807.38;6199044;23;20020;-92
2020/12/05 14:49:22;;;;;;;34.67;19.70;;;;;;;6.23;100.00;99825.19;6200681;23;20408;-92
2020/12/05 14:51:51;;;;;;;32.50;18.42;;;;;;;6.29;100.00;99833.81;6189579;23;20031;-93
2020/12/05 14:54:35;;;;;;;30.90;18.77;;;;;;;6.23;100.00;99819.88;6193577;23;20073;-92
2020/12/05 14:57:03;;;;;;;27.27;18.48;;;;;;;6.13;100.00;99831.91;6194381;23;20048;-93
2020/12/05 14:59:34;;;;;;;28.30;18.63;;;;;;;6.17;100.00;99845.91;6191329;23;20027;-91
2020/12/05 15:02:01;;;;;;;;;;;;;;;6.10;100.00;99866.59;6189789;23;20067;-92
2020/12/05 15:04:29;;;;;;;30.83;18.77;;;;;;;5.93;100.00;99869.16;6180080;23;19915;-90
2020/12/05 15:06:56;;;;;;;34.42;20.08;;;;;;;5.81;100.00;99865.25;6179586;23;20039;-90
2020/12/05 15:09:25;;;;;;;32.25;20.60;;;;;;;5.78;100.00;99858.28;6182469;23;20056;-91
2020/12/05 15:19:37;;;;;;;31.58;19.52;;;;;;;5.60;100.00;99840.53;6116505;23;20033;-95
2020/12/05 15:22:05;;;;;;;31.77;20.20;;;;;;;5.50;100.00;99842.72;6112351;23;20054;-94
2020/12/05 15:27:24;;;;;;;30.73;19.40;;;;;;;5.39;100.00;99841.50;6203150;23;20044;-96
2020/12/05 15:29:58;;;;;;;29.52;20.20;;;;;;;5.26;100.00;99865.91;6205126;23;20025;-95
2020/12/05 15:32:48;;;;;;;31.05;19.05;;;;;;;5.27;100.00;99849.06;6235530;23;20001;-95
2020/12/05 15:35:18;;;;;;;33.70;19.70;;;;;;;5.26;100.00;99839.34;6207609;23;20012;-96
2020/12/05 15:37:47;;;;;;;;;;;;;;;5.20;100.00;99842.31;6205605;23;20001;-95
2020/12/05 15:40:45;;;;;;;34.90;19.60;;;;;;;5.19;100.00;99814.03;6213309;23;19922;-96
2020/12/05 15:43:59;;;;;;;33.45;18.80;;;;;;;5.09;100.00;99788.84;6211189;23;20056;-96
2020/12/05 15:46:27;;;;;;;30.48;18.95;;;;;;;5.13;100.00;99798.38;6181107;23;20020;-95
2020/12/05 15:48:57;;;;;;;34.58;20.75;;;;;;;5.03;100.00;99828.91;6200865;23;20024;-95
2020/12/05 15:51:32;;;;;;;32.65;19.55;;;;;;;5.05;100.00;99882.78;6194576;23;20028;-82
2020/12/05 15:53:59;;;;;;;31.13;20.30;;;;;;;5.17;100.00;99868.97;6220215;23;20012;-91
2020/12/05 15:56:26;;;;;;;36.80;21.17;;;;;;;5.33;100.00;99853.22;6203515;23;20539;-96
2020/12/05 15:58:58;;;;;;;31.30;19.35;;;;;;;5.49;100.00;99861.41;6234535;23;20013;-96
2020/12/05 16:01:25;;;;;;;33.42;18.92;;;;;;;5.59;100.00;99873.34;6226992;23;20005;-95
2020/12/05 16:03:52;;;;;;;29.45;19.00;;;;;;;5.61;100.00;99899.81;6202493;23;20028;-95
2020/12/05 16:06:27;;;;;;;31.42;19.33;;;;;;;5.73;100.00;99916.06;6183390;23;20028;-95
2020/12/05 16:09:05;;;;;;;29.33;20.08;;;;;;;5.79;100.00;99926.41;6199842;23;20483;-96
2020/12/05 16:11:35;;;;;;;28.80;18.63;;;;;;;5.71;100.00;99949.78;6200487;23;20020;-94
2020/12/05 16:14:26;;;;;;;30.45;19.45;;;;;;;5.54;100.00;99931.94;6229942;23;20031;-92
2020/12/05 16:17:23;;;;;;;30.90;18.70;;;;;;;5.63;100.00;99919.22;6201584;23;20004;-93
2020/12/05 16:19:52;;;;;;;28.83;19.48;;;;;;;5.81;100.00;99925.50;6232351;23;20486;-93
2020/12/05 16:22:19;;;;;;;34.58;18.83;;;;;;;5.65;100.00;99926.16;6191483;23;20506;-91
2020/12/05 16:24:48;;;;;;;34.00;19.98;;;;;;;5.63;100.00;99924.53;6204801;23;20027;-93
2020/12/05 16:27:20;;;;;;;37.08;19.85;;;;;;;5.65;100.00;99902.25;6226956;23;20021;-96
2020/12/05 16:29:48;;;;;;;36.45;19.60;;;;;;;5.87;100.00;99896.84;6207757;23;20024;-94
2020/12/05 16:32:20;;;;;;;37.22;20.63;;;;;;;5.51;100.00;99905.50;6207589;23;20028;-96
2020/12/05 16:35:15;;;;;;;31.88;19.67;;;;;;;5.54;100.00;99913.34;6211319;23;20017;-95
2020/12/05 16:46:09;;;;;;;33.08;19.27;;;;;;;5.38;100.00;99925.59;6210018;23;20005;-94
2020/12/05 17:00:14;;;;;;;42.22;23.25;;;;;;;5.34;100.00;99977.09;6121541;23;20070;-96
2020/12/05 17:37:11;;;;;;;42.63;23.02;;;;;;;4.97;100.00;100025.47;6110489;23;20010;-88
2020/12/05 17:39:51;;;;;;;39.42;23.77;;;;;;;5.08;100.00;100023.25;6076738;23;20046;-95
2020/12/05 17:42:24;;;;;;;42.65;24.45;;;;;;;4.88;100.00;100039.97;6123754;23;20018;-95
2020/12/05 17:44:57;;;;;;;36.05;22.60;;;;;;;4.98;100.00;100049.31;6173957;23;20009;-91
2020/12/05 17:47:31;;;;;;;41.25;24.27;;;;;;;5.10;100.00;100057.69;6157009;23;20002;-90
2020/12/05 17:50:02;;;;;;;41.00;25.30;;;;;;;5.09;100.00;100066.59;6205072;23;20003;-86
2020/12/05 17:52:34;;;;;;;39.67;23.25;;;;;;;5.29;100.00;100064.84;6218626;23;20017;-89
2020/12/05 17:55:11;;;;;;;39.78;22.67;;;;;;;5.38;100.00;100065.41;6213766;23;20076;-92
2020/12/05 17:57:41;;;;;;;39.70;23.08;;;;;;;5.03;100.00;100078.28;6209222;23;20024;-92
2020/12/05 18:03:22;;;;;;;38.03;24.00;;;;;;;5.10;100.00;100085.09;6208137;23;20021;-95
2020/12/05 18:05:57;;;;;;;40.97;23.42;;;;;;;5.06;100.00;100096.75;6241668;23;20019;-92
2020/12/05 19:59:04;;;;;;;46.77;26.13;;;;;;;4.76;100.00;100263.22;6152873;23;20036;-79
2020/12/05 21:41:30;;;;;;;32.65;20.05;;;;;;;4.70;100.00;100375.69;6235512;22;20070;-93
2020/12/05 21:43:58;;;;;;;32.28;21.08;;;;;;;4.64;100.00;100372.38;6215411;23;20893;-92
2020/12/05 21:46:25;;;;;;;32.45;22.00;;;;;;;4.61;100.00;100364.50;6220968;22;20028;-91
2020/12/05 21:48:52;;;;;;;33.55;21.58;;;;;;;4.76;100.00;100372.84;6240800;22;20024;-91
2020/12/05 21:51:21;;;;;;;30.60;19.75;;;;;;;4.77;100.00;100368.41;6243008;22;20023;-92